Time;durP1;ratioP1;P1;durP2;ratioP2;P2;SDS_P1;SDS_P2;PMS_P1;PMS_P2;Temp;Humidity;BMP_temperature;BMP_pressure;BME280_temperature;BME280_humidity;BME280_pressure;Samples;Min_cycle;Max_cycle;Signal;HPM_P1;HPM_P2
2022/05/20 00:01:59;;;;;;;5.15;3.28;;;;;;;19.05;nan;101690.19;5066329;28;20020;-39
2022/05/20 00:04:25;;;;;;;6.07;3.42;;;;;;;18.97;nan;101697.81;5063287;28;20478;-41
2022/05/20 00:06:50;;;;;;;3.95;3.00;;;;;;;18.97;nan;101692.38;5062869;28;20029;-39
2022/05/20 00:09:16;;;;;;;4.47;3.13;;;;;;;18.92;nan;101694.31;5063189;28;20209;-39
2022/05/20 00:11:41;;;;;;;3.53;3.13;;;;;;;18.81;nan;101707.13;5056674;28;20410;-40
2022/05/20 00:14:07;;;;;;;5.22;3.25;;;;;;;18.73;nan;101713.16;5060626;28;20133;-39
2022/05/20 00:16:37;;;;;;;4.63;3.55;;;;;;;18.55;nan;101709.13;5066079;28;20029;-39
2022/05/20 00:19:06;;;;;;;5.05;3.53;;;;;;;18.54;nan;101715.66;5063437;28;20016;-39
2022/05/20 00:21:33;;;;;;;6.43;3.60;;;;;;;18.53;nan;101722.19;5068360;28;20039;-40
2022/05/20 00:23:59;;;;;;;5.50;3.45;;;;;;;18.47;nan;101723.25;5064939;28;20028;-41
2022/05/20 00:26:25;;;;;;;3.75;3.28;;;;;;;18.53;nan;101726.78;5067821;28;20027;-41
2022/05/20 00:28:53;;;;;;;6.07;3.70;;;;;;;18.55;nan;101724.59;5056758;28;20086;-39
2022/05/20 00:31:19;;;;;;;5.55;3.50;;;;;;;18.67;nan;101734.09;5057830;28;20190;-39
2022/05/20 00:33:45;;;;;;;6.25;3.20;;;;;;;18.78;nan;101734.84;5060120;28;20112;-39
2022/05/20 00:36:10;;;;;;;4.55;2.83;;;;;;;18.86;nan;101736.19;5060614;28;20025;-39
2022/05/20 00:38:36;;;;;;;6.32;2.63;;;;;;;18.99;nan;101735.53;5062527;28;20028;-39
2022/05/20 00:41:02;;;;;;;6.80;3.20;;;;;;;19.08;nan;101735.78;5060525;28;20028;-39
2022/05/20 00:43:40;;;;;;;4.18;2.80;;;;;;;19.15;nan;101738.97;5063199;28;20412;-39
2022/05/20 00:46:09;;;;;;;5.80;2.88;;;;;;;19.17;nan;101739.50;5063747;28;20474;-40
2022/05/20 00:48:35;;;;;;;4.45;2.88;;;;;;;19.20;nan;101733.50;5063575;28;20032;-39
2022/05/20 00:51:04;;;;;;;7.22;3.15;;;;;;;19.24;nan;101748.19;5064346;28;20028;-39
2022/05/20 00:53:40;;;;;;;4.03;2.75;;;;;;;19.23;nan;101743.84;5062679;28;20028;-40
2022/05/20 00:56:08;;;;;;;4.18;2.75;;;;;;;19.27;nan;101739.47;5063083;28;20020;-39
2022/05/20 00:58:34;;;;;;;6.38;2.63;;;;;;;19.17;nan;101750.38;5062793;28;20033;-39
2022/05/20 01:01:02;;;;;;;3.00;2.70;;;;;;;19.17;nan;101750.38;5062538;28;20543;-39
2022/05/20 01:03:29;;;;;;;5.50;2.47;;;;;;;19.22;nan;101747.66;5050841;28;20064;-40
2022/05/20 01:05:56;;;;;;;3.70;2.42;;;;;;;19.24;nan;101750.91;5054879;28;20474;-39
2022/05/20 01:08:26;;;;;;;5.85;2.88;;;;;;;19.22;nan;101759.31;5053868;28;20390;-39
2022/05/20 01:10:52;;;;;;;4.18;2.28;;;;;;;19.20;nan;101760.69;5061799;28;20390;-40
2022/05/20 01:13:19;;;;;;;4.25;2.50;;;;;;;19.17;nan;101758.53;5060927;28;20108;-40
2022/05/20 01:15:45;;;;;;;3.22;2.25;;;;;;;19.10;nan;101761.56;5063132;28;20032;-39
2022/05/20 01:18:13;;;;;;;4.00;2.10;;;;;;;19.11;nan;101771.34;5069404;28;20105;-40
2022/05/20 01:20:43;;;;;;;3.38;2.45;;;;;;;19.08;nan;101768.38;5060171;28;20024;-39
2022/05/20 01:23:14;;;;;;;2.60;2.40;;;;;;;19.07;nan;101772.19;5055197;28;20187;-39
2022/05/20 01:25:43;;;;;;;3.40;2.30;;;;;;;18.98;nan;101780.91;5050471;28;20020;-39
2022/05/20 01:28:08;;;;;;;3.88;2.33;;;;;;;19.02;nan;101784.69;5064332;28;20486;-40
2022/05/20 01:30:34;;;;;;;4.03;2.50;;;;;;;19.03;nan;101790.94;5064666;28;20036;-39
2022/05/20 01:33:05;;;;;;;3.88;2.35;;;;;;;18.99;nan;101785.25;5056874;28;20115;-39
2022/05/20 01:35:42;;;;;;;4.57;2.50;;;;;;;18.96;nan;101791.22;5051826;28;20039;-39
2022/05/20 01:38:11;;;;;;;4.07;2.63;;;;;;;18.94;nan;101796.13;5051815;28;20174;-40
2022/05/20 01:40:50;;;;;;;5.38;2.70;;;;;;;18.81;nan;101796.72;5055318;28;20117;-41
2022/05/20 01:43:24;;;;;;;2.60;2.40;;;;;;;18.80;nan;101800.53;5053488;28;20489;-39
2022/05/20 01:46:12;;;;;;;5.68;2.88;;;;;;;18.75;nan;101797.84;5054174;28;20024;-40
2022/05/20 01:48:47;;;;;;;3.25;2.60;;;;;;;18.73;nan;101791.88;5051736;28;20041;-39
2022/05/20 01:51:16;;;;;;;4.32;2.75;;;;;;;18.68;nan;101791.91;5046021;28;20091;-39
2022/05/20 01:53:51;;;;;;;3.47;2.40;;;;;;;18.67;nan;101792.97;5056122;28;20032;-39
2022/05/20 01:56:22;;;;;;;2.88;2.53;;;;;;;18.64;nan;101788.91;5062022;28;20025;-39
2022/05/20 01:59:20;;;;;;;4.60;2.78;;;;;;;18.54;nan;101794.34;5062993;28;20393;-40
2022/05/20 02:01:52;;;;;;;3.20;2.67;;;;;;;18.55;nan;101801.41;5060424;28;20032;-39
2022/05/20 02:04:28;;;;;;;6.63;3.22;;;;;;;18.48;nan;101802.78;5064754;28;20020;-39
2022/05/20 02:07:00;;;;;;;7.05;3.05;;;;;;;18.38;nan;101801.72;5062355;28;20351;-39
2022/05/20 02:09:40;;;;;;;5.85;3.10;;;;;;;18.37;nan;101802.00;5063057;28;20044;-39
2022/05/20 02:12:06;;;;;;;5.57;3.00;;;;;;;18.30;nan;101802.25;5064289;28;20108;-39
2022/05/20 02:15:10;;;;;;;4.63;2.92;;;;;;;18.29;nan;101799.81;5061688;28;20111;-39
2022/05/20 02:17:38;;;;;;;3.50;2.78;;;;;;;18.25;nan;101796.84;5020990;28;20040;-39
2022/05/20 02:20:13;;;;;;;4.72;3.63;;;;;;;18.24;nan;101803.38;5060986;28;20111;-39
2022/05/20 02:22:44;;;;;;;4.28;3.03;;;;;;;18.15;nan;101809.63;5056482;28;20225;-39
2022/05/20 02:25:15;;;;;;;3.10;2.80;;;;;;;18.17;nan;101808.28;5061671;28;20251;-41
2022/05/20 02:27:46;;;;;;;4.45;3.53;;;;;;;18.10;nan;101810.44;5064867;28;20111;-39
2022/05/20 02:30:15;;;;;;;4.68;3.22;;;;;;;18.07;nan;101814.50;5056703;28;20474;-39
2022/05/20 02:32:56;;;;;;;4.45;2.80;;;;;;;17.99;nan;101812.34;5060282;28;20068;-39
2022/05/20 02:35:21;;;;;;;6.07;3.03;;;;;;;18.03;nan;101818.84;5059950;28;20131;-39
2022/05/20 02:37:47;;;;;;;5.90;3.40;;;;;;;17.97;nan;101813.72;5062413;28;20132;-39
2022/05/20 02:40:16;;;;;;;5.03;3.70;;;;;;;17.98;nan;101820.75;5061859;28;20054;-39
2022/05/20 02:42:42;;;;;;;6.40;3.38;;;;;;;17.96;nan;101822.94;5064815;28;20055;-39
2022/05/20 02:45:08;;;;;;;6.80;3.88;;;;;;;17.91;nan;101825.63;5058654;28;20064;-39
2022/05/20 02:47:35;;;;;;;5.00;3.75;;;;;;;17.83;nan;101821.56;5058817;28;20464;-39
2022/05/20 02:50:03;;;;;;;8.13;4.05;;;;;;;17.80;nan;101820.22;5062317;28;20106;-39
2022/05/20 02:52:29;;;;;;;5.30;3.72;;;;;;;17.80;nan;101820.22;5061565;28;20115;-39
2022/05/20 02:54:55;;;;;;;4.18;3.67;;;;;;;17.76;nan;101819.09;5059487;28;20024;-39
2022/05/20 02:57:20;;;;;;;5.25;4.25;;;;;;;17.78;nan;101822.38;5065042;28;20028;-39
2022/05/20 03:05:17;;;;;;;6.43;5.00;;;;;;;17.71;nan;101831.84;5063889;28;20067;-39
2022/05/20 03:07:42;;;;;;;6.93;4.53;;;;;;;17.72;nan;101828.06;5061560;28;20529;-39
2022/05/20 03:10:09;;;;;;;5.68;4.72;;;;;;;17.68;nan;101824.25;5055790;28;20116;-39
2022/05/20 03:12:35;;;;;;;6.95;5.68;;;;;;;17.66;nan;101824.50;5056556;28;20055;-39
2022/05/20 03:15:07;;;;;;;9.38;6.40;;;;;;;17.70;nan;101825.63;5060484;28;20111;-39
2022/05/20 03:17:33;;;;;;;6.65;5.70;;;;;;;17.66;nan;101824.50;5062385;28;20089;-39
2022/05/20 03:19:59;;;;;;;13.00;6.53;;;;;;;17.62;nan;101828.84;5058238;28;20041;-39
2022/05/20 03:22:24;;;;;;;9.50;6.97;;;;;;;17.59;nan;101836.66;5061759;28;20025;-39
2022/05/20 03:24:50;;;;;;;9.93;6.70;;;;;;;17.60;nan;101836.44;5058691;28;20056;-39
2022/05/20 03:27:17;;;;;;;9.68;6.78;;;;;;;17.61;nan;101843.47;5063002;28;20032;-39
2022/05/20 03:29:44;;;;;;;8.45;6.93;;;;;;;17.62;nan;101852.41;5062787;28;20032;-39
2022/05/20 03:32:10;;;;;;;10.00;6.53;;;;;;;17.63;nan;101852.16;5061120;28;20100;-39
2022/05/20 03:34:36;;;;;;;10.27;6.97;;;;;;;17.51;nan;101851.56;5062254;28;20240;-39
2022/05/20 03:37:02;;;;;;;10.07;7.25;;;;;;;17.50;nan;101855.34;5065917;28;20031;-39
2022/05/20 03:39:28;;;;;;;8.80;7.53;;;;;;;17.52;nan;101847.78;5057398;28;20028;-39
2022/05/20 03:41:53;;;;;;;9.48;7.10;;;;;;;17.57;nan;101857.81;5065333;28;20396;-39
2022/05/20 03:44:19;;;;;;;9.35;7.05;;;;;;;17.59;nan;101861.88;5062747;28;20063;-39
2022/05/20 03:46:52;;;;;;;8.23;7.22;;;;;;;17.60;nan;101863.53;5063387;28;20281;-40
2022/05/20 03:49:19;;;;;;;9.95;7.70;;;;;;;17.65;nan;101860.81;5061809;28;20682;-39
2022/05/20 03:51:47;;;;;;;12.18;7.57;;;;;;;17.66;nan;101862.44;5069374;28;20203;-39
2022/05/20 03:54:15;;;;;;;8.65;7.65;;;;;;;17.62;nan;101865.97;5065959;28;20560;-39
2022/05/20 03:56:41;;;;;;;10.77;7.82;;;;;;;17.69;nan;101878.19;5062169;28;20039;-39
2022/05/20 03:59:08;;;;;;;11.77;7.65;;;;;;;17.73;nan;101883.88;5077336;22;20056;-51
2022/05/20 04:04:18;;;;;;;11.55;9.50;;;;;;;17.77;nan;101885.81;5062154;28;20404;-55
2022/05/20 04:06:44;;;;;;;10.45;9.35;;;;;;;17.80;nan;101885.28;5062114;28;20036;-51
2022/05/20 04:09:09;;;;;;;13.32;9.40;;;;;;;17.83;nan;101889.34;5049479;28;20428;-52
2022/05/20 04:11:35;;;;;;;10.32;8.82;;;;;;;17.86;nan;101893.41;5043291;28;20020;-56
2022/05/20 04:14:01;;;;;;;12.02;9.32;;;;;;;17.89;nan;101901.00;5043958;28;20029;-54
2022/05/20 04:16:26;;;;;;;11.50;8.88;;;;;;;17.87;nan;101900.47;5046578;28;20509;-55
2022/05/20 04:18:52;;;;;;;11.50;8.82;;;;;;;17.81;nan;101900.47;5047736;28;20036;-53
2022/05/20 04:21:18;;;;;;;12.27;9.27;;;;;;;17.77;nan;101906.66;5043318;28;20021;-51
2022/05/20 04:23:43;;;;;;;14.07;9.77;;;;;;;17.81;nan;101900.47;5045958;28;20025;-52
2022/05/20 04:26:10;;;;;;;11.00;8.98;;;;;;;17.90;nan;101902.63;5044915;28;20052;-51
2022/05/20 04:28:36;;;;;;;11.45;9.10;;;;;;;17.91;nan;101905.06;5044622;28;20033;-54
2022/05/20 04:31:05;;;;;;;12.40;9.57;;;;;;;17.89;nan;101909.13;5043956;28;20714;-52
2022/05/20 04:33:31;;;;;;;12.43;9.50;;;;;;;17.91;nan;101909.66;5041015;28;20148;-54
2022/05/20 04:35:57;;;;;;;11.55;9.32;;;;;;;17.94;nan;101917.25;5043181;28;20032;-54
2022/05/20 04:38:22;;;;;;;13.52;9.73;;;;;;;17.97;nan;101919.47;5042548;28;20071;-54
2022/05/20 04:46:56;;;;;;;10.38;8.60;;;;;;;17.96;nan;101918.66;5048497;28;20025;-55
2022/05/20 04:49:08;;;;;;;10.85;8.32;;;;;;;18.10;nan;101916.19;5040859;28;19924;-54
2022/05/20 04:51:34;;;;;;;14.60;8.65;;;;;;;18.16;nan;101920.56;5048047;28;20191;-55
2022/05/20 04:56:45;;;;;;;11.90;9.25;;;;;;;18.33;nan;101918.41;5039159;28;20040;-53
2022/05/20 04:59:10;;;;;;;11.40;8.55;;;;;;;18.38;nan;101914.88;5039756;28;20036;-52
2022/05/20 05:01:36;;;;;;;12.82;9.45;;;;;;;18.37;nan;101907.81;5043248;28;20063;-53
2022/05/20 05:04:01;;;;;;;11.45;9.05;;;;;;;18.40;nan;101915.41;5045966;28;20111;-54
2022/05/20 05:06:26;;;;;;;11.50;7.78;;;;;;;18.40;nan;101910.78;5043076;28;20478;-54
2022/05/20 05:08:53;;;;;;;10.82;8.00;;;;;;;18.40;nan;101927.06;5040090;28;20030;-53
2022/05/20 05:11:20;;;;;;;11.55;8.13;;;;;;;18.51;nan;101922.47;5041136;28;20467;-52
2022/05/20 05:13:46;;;;;;;8.30;7.22;;;;;;;18.61;nan;101918.91;5042172;28;20058;-54
2022/05/20 05:16:11;;;;;;;11.10;8.50;;;;;;;18.68;nan;101924.94;5041601;28;20032;-52
2022/05/20 05:18:37;;;;;;;15.30;9.02;;;;;;;18.74;nan;101921.09;5038748;28;20029;-52
2022/05/20 05:21:03;;;;;;;13.40;8.50;;;;;;;18.78;nan;101930.31;5038302;28;20032;-54
2022/05/20 05:23:29;;;;;;;13.10;8.63;;;;;;;18.86;nan;101946.06;5039419;28;20017;-55
2022/05/20 05:25:55;;;;;;;12.68;9.30;;;;;;;18.89;nan;101950.94;5043044;28;20108;-55
2022/05/20 05:28:22;;;;;;;11.18;8.85;;;;;;;18.89;nan;101945.53;5043562;28;20082;-51
2022/05/20 05:30:49;;;;;;;11.20;8.75;;;;;;;18.98;nan;101940.31;5041360;28;20026;-52
2022/05/20 05:33:17;;;;;;;12.82;9.85;;;;;;;19.04;nan;101946.56;5035225;28;20570;-52
2022/05/20 05:35:42;;;;;;;9.60;8.48;;;;;;;19.02;nan;101950.34;5039226;28;20068;-52
2022/05/20 05:38:08;;;;;;;12.85;9.30;;;;;;;19.05;nan;101943.59;5041531;28;20056;-51
2022/05/20 05:40:34;;;;;;;11.52;9.70;;;;;;;19.01;nan;101947.91;5040039;28;20570;-52
2022/05/20 05:43:00;;;;;;;12.35;9.05;;;;;;;19.04;nan;101952.81;5040948;28;20024;-54
2022/05/20 05:45:28;;;;;;;15.05;9.45;;;;;;;19.01;nan;101950.63;5024720;28;20078;-54
2022/05/20 05:47:57;;;;;;;12.88;9.50;;;;;;;18.93;nan;101952.03;5039141;28;20021;-54
2022/05/20 05:50:23;;;;;;;10.65;9.48;;;;;;;18.94;nan;101955.56;5038384;28;20044;-52
2022/05/20 05:53:14;;;;;;;11.15;8.95;;;;;;;19.02;nan;101953.06;5035662;28;20378;-56
2022/05/20 05:55:41;;;;;;;11.65;9.63;;;;;;;19.04;nan;101957.44;5020604;28;20030;-53
2022/05/20 05:58:08;;;;;;;11.95;9.30;;;;;;;19.06;nan;101956.06;5024864;28;20506;-51
2022/05/20 06:00:34;;;;;;;10.70;9.18;;;;;;;19.10;nan;101962.56;5020351;28;20047;-55
2022/05/20 06:02:59;;;;;;;12.30;8.98;;;;;;;19.15;nan;101956.31;5021950;28;20028;-54
2022/05/20 06:05:25;;;;;;;11.45;8.65;;;;;;;19.18;nan;101958.47;5018017;28;20033;-53
2022/05/20 06:07:53;;;;;;;12.98;8.05;;;;;;;19.29;nan;101951.94;5018170;28;20498;-51
2022/05/20 06:10:19;;;;;;;12.55;8.75;;;;;;;19.45;nan;101958.94;5018718;28;20057;-55
2022/05/20 06:12:45;;;;;;;11.60;9.43;;;;;;;19.61;nan;101965.97;5021239;28;20565;-52
2022/05/20 06:15:15;;;;;;;12.05;8.75;;;;;;;19.60;nan;101967.06;5016826;28;20112;-53
2022/05/20 06:17:41;;;;;;;14.52;9.32;;;;;;;19.61;nan;101959.72;5015340;28;20567;-51
2022/05/20 06:20:08;;;;;;;10.95;8.73;;;;;;;19.66;nan;101956.16;5021050;28;20022;-53
2022/05/20 06:22:33;;;;;;;12.60;8.68;;;;;;;19.81;nan;101972.38;5016909;28;20025;-55
2022/05/20 06:24:59;;;;;;;10.77;9.30;;;;;;;19.86;nan;101964.19;5017785;28;20029;-52
2022/05/20 06:27:25;;;;;;;11.00;8.20;;;;;;;19.81;nan;101972.38;5019496;28;20025;-54
2022/05/20 06:29:52;;;;;;;11.35;8.82;;;;;;;19.76;nan;101975.16;5017824;28;20030;-54
2022/05/20 06:32:18;;;;;;;10.63;7.78;;;;;;;19.78;nan;101978.38;5020008;28;20104;-56
2022/05/20 06:40:19;;;;;;;9.80;7.65;;;;;;;19.70;nan;101965.38;5016190;28;20497;-53
2022/05/20 06:42:45;;;;;;;7.80;6.80;;;;;;;19.74;nan;101969.94;5018722;28;20891;-52
2022/05/20 06:45:15;;;;;;;8.63;7.10;;;;;;;19.82;nan;101980.25;5009798;28;20041;-57
2022/05/20 06:47:40;;;;;;;9.93;6.68;;;;;;;19.86;nan;101970.44;5011299;28;20903;-53
2022/05/20 06:50:08;;;;;;;8.15;7.10;;;;;;;19.84;nan;101972.63;5020679;28;20041;-54
2022/05/20 06:52:33;;;;;;;9.00;6.65;;;;;;;19.78;nan;101975.66;5017054;28;20040;-52
2022/05/20 06:54:59;;;;;;;7.22;6.50;;;;;;;19.83;nan;101970.19;5009278;28;20029;-54
2022/05/20 06:57:25;;;;;;;8.73;6.28;;;;;;;19.95;nan;101978.03;5016770;28;20025;-56
2022/05/20 06:59:52;;;;;;;8.68;7.00;;;;;;;19.90;nan;101976.94;5036115;28;20623;-54
2022/05/20 07:02:18;;;;;;;9.00;7.50;;;;;;;19.89;nan;101975.31;5037059;28;20056;-52
2022/05/20 07:04:43;;;;;;;7.38;6.65;;;;;;;19.98;nan;101967.41;5038105;28;20025;-52
2022/05/20 07:07:09;;;;;;;7.13;6.18;;;;;;;20.07;nan;101960.25;5024743;28;20017;-52
2022/05/20 07:09:35;;;;;;;11.35;6.38;;;;;;;20.09;nan;101958.06;5039445;28;20037;-54
2022/05/20 07:12:01;;;;;;;8.48;5.60;;;;;;;20.18;nan;101961.81;5047121;28;20027;-53
2022/05/20 07:14:26;;;;;;;7.97;6.75;;;;;;;20.18;nan;101967.25;5042795;28;20418;-51
2022/05/20 07:16:52;;;;;;;7.03;6.32;;;;;;;20.22;nan;101964.78;5045727;28;20025;-51
2022/05/20 07:19:18;;;;;;;7.55;6.05;;;;;;;20.47;nan;101966.53;5040099;28;20025;-51
2022/05/20 07:21:43;;;;;;;8.18;6.22;;;;;;;20.70;nan;101949.44;5039630;28;20482;-52
2022/05/20 07:24:09;;;;;;;10.13;5.47;;;;;;;20.86;nan;101952.03;5047023;28;20021;-51
2022/05/20 07:26:36;;;;;;;7.93;5.88;;;;;;;21.01;nan;101947.22;5038199;28;20513;-50
2022/05/20 07:29:03;;;;;;;7.53;6.15;;;;;;;21.25;nan;101946.44;5041310;28;20049;-53
2022/05/20 07:31:29;;;;;;;8.98;7.63;;;;;;;21.24;nan;101942.91;5043889;28;20486;-53
2022/05/20 07:33:54;;;;;;;10.43;7.63;;;;;;;21.20;nan;101950.00;5038239;28;20041;-52
2022/05/20 07:36:21;;;;;;;7.70;6.97;;;;;;;21.21;nan;101959.81;5037969;28;20115;-50
2022/05/20 07:38:46;;;;;;;9.55;7.90;;;;;;;20.91;nan;101962.84;5033436;28;20033;-53
2022/05/20 07:41:13;;;;;;;10.68;8.20;;;;;;;20.79;nan;101961.31;5037578;28;20043;-53
2022/05/20 07:43:39;;;;;;;8.88;7.30;;;;;;;20.85;nan;101959.38;5040808;28;20079;-50
2022/05/20 07:46:05;;;;;;;10.10;7.95;;;;;;;21.07;nan;101951.50;5039728;28;20052;-54
2022/05/20 07:48:30;;;;;;;8.65;6.68;;;;;;;21.33;nan;101948.50;5040117;28;20061;-51
2022/05/20 07:51:02;;;;;;;11.45;6.43;;;;;;;21.50;nan;101948.84;5043570;28;20505;-53
2022/05/20 07:53:37;;;;;;;7.43;6.20;;;;;;;21.48;nan;101952.97;5036872;28;20623;-52
2022/05/20 07:56:10;;;;;;;;;;;;;;;21.34;nan;101955.59;5040770;28;20144;-53
2022/05/20 07:58:43;;;;;;;8.70;6.10;;;;;;;21.37;nan;101947.66;5035377;28;19920;-52
2022/05/20 08:01:09;;;;;;;8.30;6.60;;;;;;;21.48;nan;101950.22;5039166;28;20021;-52
2022/05/20 08:06:21;;;;;;;12.07;5.45;;;;;;;21.76;nan;101940.34;5041846;28;20132;-52
2022/05/20 08:08:47;;;;;;;6.45;5.85;;;;;;;21.96;nan;101932.66;5038954;28;20088;-52
2022/05/20 08:11:13;;;;;;;7.40;5.93;;;;;;;22.06;nan;101926.25;5041316;28;20057;-51
2022/05/20 08:13:39;;;;;;;6.43;5.75;;;;;;;22.01;nan;101932.56;5038330;28;20032;-52
2022/05/20 08:16:05;;;;;;;8.30;5.82;;;;;;;22.09;nan;101938.50;5044338;28;20021;-53
2022/05/20 08:18:31;;;;;;;6.70;5.60;;;;;;;22.06;nan;101930.91;5037509;28;20029;-52
2022/05/20 08:20:58;;;;;;;6.82;5.70;;;;;;;22.29;nan;101932.72;5038571;28;20032;-51
2022/05/20 08:23:24;;;;;;;6.45;5.05;;;;;;;22.40;nan;101931.44;5045636;28;20031;-52
2022/05/20 08:25:49;;;;;;;8.98;5.68;;;;;;;22.26;nan;101930.56;5042743;28;20912;-52
2022/05/20 08:28:16;;;;;;;8.02;5.88;;;;;;;22.09;nan;101930.31;5043478;28;20083;-49
2022/05/20 08:30:42;;;;;;;8.13;4.95;;;;;;;22.08;nan;101932.22;5040147;28;20083;-52
2022/05/20 08:33:07;;;;;;;5.95;5.05;;;;;;;22.20;nan;101939.97;5041293;28;20453;-54
2022/05/20 08:35:33;;;;;;;7.15;4.80;;;;;;;22.24;nan;101935.50;5037267;28;20064;-52
2022/05/20 08:38:02;;;;;;;6.03;4.75;;;;;;;22.23;nan;101936.63;5042623;28;20033;-50
2022/05/20 08:40:32;;;;;;;6.65;4.72;;;;;;;21.99;nan;101944.91;5045968;28;20059;-51
2022/05/20 08:43:00;;;;;;;9.25;4.40;;;;;;;21.95;nan;101936.50;5043444;28;20049;-51
2022/05/20 08:45:28;;;;;;;7.00;4.30;;;;;;;22.15;nan;101940.03;5035554;28;20049;-51
2022/05/20 08:47:54;;;;;;;5.75;4.07;;;;;;;22.26;nan;101933.28;5045592;28;20021;-51
2022/05/20 08:50:24;;;;;;;6.13;3.88;;;;;;;22.51;nan;101929.34;5042419;28;20036;-52
2022/05/20 08:52:53;;;;;;;5.72;4.05;;;;;;;22.57;nan;101931.69;5040502;28;20429;-52
2022/05/20 08:55:19;;;;;;;5.85;4.05;;;;;;;22.54;nan;101935.00;5040923;28;20556;-52
2022/05/20 08:57:48;;;;;;;3.78;3.47;;;;;;;22.38;nan;101932.84;5038532;28;20068;-52
2022/05/20 09:00:16;;;;;;;4.25;3.85;;;;;;;22.46;nan;101932.97;5038338;28;20049;-51
2022/05/20 09:02:42;;;;;;;5.85;3.70;;;;;;;22.63;nan;101923.41;5044013;28;20095;-52
2022/05/20 09:05:21;;;;;;;4.35;3.80;;;;;;;22.75;nan;101929.19;5042333;28;20238;-51
2022/05/20 09:08:03;;;;;;;5.00;4.50;;;;;;;22.82;nan;101922.25;5043225;28;20037;-52
2022/05/20 09:10:35;;;;;;;4.53;4.03;;;;;;;22.77;nan;101921.50;5048979;28;20638;-55
2022/05/20 09:13:13;;;;;;;4.22;3.10;;;;;;;22.63;nan;101926.94;5044451;28;20486;-51
2022/05/20 09:15:46;;;;;;;5.05;3.60;;;;;;;22.45;nan;101917.72;5035388;28;20433;-53
2022/05/20 09:18:39;;;;;;;5.72;3.47;;;;;;;22.63;nan;101915.22;5042654;28;20040;-51
2022/05/20 09:21:06;;;;;;;6.00;4.13;;;;;;;23.01;nan;101899.50;5039818;28;20523;-53
2022/05/20 09:23:46;;;;;;;4.28;3.70;;;;;;;23.21;nan;101910.81;5045878;28;20413;-51
2022/05/20 09:26:12;;;;;;;3.92;2.97;;;;;;;23.34;nan;101913.81;5038748;28;20024;-54
2022/05/20 09:29:11;;;;;;;4.47;3.00;;;;;;;23.45;nan;101904.28;5037939;28;20052;-51
2022/05/20 09:32:00;;;;;;;3.67;3.20;;;;;;;23.64;nan;101899.50;5032383;28;20025;-52
2022/05/20 09:34:26;;;;;;;5.15;3.65;;;;;;;23.73;nan;101894.13;5042867;28;20029;-53
2022/05/20 09:37:17;;;;;;;6.95;3.30;;;;;;;23.58;nan;101906.22;5038400;28;20756;-49
2022/05/20 09:39:48;;;;;;;4.75;4.10;;;;;;;23.43;nan;101898.31;5031322;28;20782;-49
2022/05/20 09:42:20;;;;;;;7.93;3.78;;;;;;;22.97;nan;101904.72;5036912;28;20044;-53
2022/05/20 09:44:52;;;;;;;5.55;4.05;;;;;;;22.97;nan;101899.25;5035834;28;20604;-50
2022/05/20 09:47:17;;;;;;;8.05;3.67;;;;;;;23.11;nan;101891.88;5037657;28;20017;-50
2022/05/20 09:49:54;;;;;;;5.53;3.75;;;;;;;23.15;nan;101906.53;5039274;28;20521;-54
2022/05/20 09:52:35;;;;;;;4.65;3.22;;;;;;;23.30;nan;101904.63;5041486;28;20025;-53
2022/05/20 09:55:22;;;;;;;4.82;2.50;;;;;;;23.37;nan;101908.56;5043173;28;20387;-54
2022/05/20 10:00:19;;;;;;;3.92;2.60;;;;;;;23.45;nan;101915.22;5028468;28;20045;-44
2022/05/20 10:03:18;;;;;;;4.15;2.72;;;;;;;23.28;nan;101904.94;5041395;28;20029;-47
2022/05/20 10:06:08;;;;;;;6.80;3.28;;;;;;;23.42;nan;101911.19;5032978;28;20343;-45
2022/05/20 10:09:01;;;;;;;5.05;3.00;;;;;;;23.55;nan;101897.81;5037628;28;20025;-46
2022/05/20 10:11:35;;;;;;;4.40;3.42;;;;;;;23.57;nan;101899.13;5054313;28;20102;-47
2022/05/20 10:14:15;;;;;;;5.35;3.80;;;;;;;23.19;nan;101893.91;5058435;28;20052;-46
2022/05/20 10:16:52;;;;;;;4.63;3.22;;;;;;;23.28;nan;101895.91;5056226;28;20036;-46
2022/05/20 10:19:20;;;;;;;5.13;3.33;;;;;;;23.38;nan;101891.03;5055421;28;20036;-45
2022/05/20 10:22:03;;;;;;;3.75;3.30;;;;;;;23.44;nan;101897.22;5058942;28;20040;-47
2022/05/20 10:24:47;;;;;;;3.20;2.90;;;;;;;23.71;nan;101878.03;5055736;28;20119;-46
2022/05/20 10:27:21;;;;;;;4.28;2.70;;;;;;;23.87;nan;101885.84;5055576;28;20029;-46
2022/05/20 10:33:01;;;;;;;2.85;2.35;;;;;;;23.86;nan;101867.81;5056859;28;20085;-45
2022/05/20 10:35:43;;;;;;;4.95;2.65;;;;;;;24.01;nan;101873.72;5059687;28;20115;-46
2022/05/20 10:38:42;;;;;;;3.75;2.88;;;;;;;23.86;nan;101876.03;5043460;28;20142;-46
2022/05/20 10:41:12;;;;;;;4.85;3.08;;;;;;;24.02;nan;101858.91;5059782;28;20060;-48
2022/05/20 10:49:39;;;;;;;3.30;3.00;;;;;;;24.09;nan;101856.56;5059113;28;20419;-47
2022/05/20 10:52:31;;;;;;;3.05;2.78;;;;;;;24.17;nan;101852.25;5059536;28;20036;-45
2022/05/20 10:55:33;;;;;;;3.10;2.40;;;;;;;24.25;nan;101851.50;5057065;28;20029;-48
2022/05/20 10:58:41;;;;;;;3.28;2.47;;;;;;;24.33;nan;101847.22;5054353;28;20040;-46
2022/05/20 11:01:35;;;;;;;3.63;2.30;;;;;;;24.44;nan;101850.50;5037656;28;20033;-48
2022/05/20 11:04:52;;;;;;;2.85;2.17;;;;;;;24.58;nan;101845.72;5035789;28;20021;-47
2022/05/20 11:07:55;;;;;;;5.07;2.20;;;;;;;24.67;nan;101847.38;4995774;28;20124;-46
2022/05/20 11:10:24;;;;;;;8.25;2.58;;;;;;;24.73;nan;101859.00;5037162;28;20024;-47
2022/05/20 11:13:02;;;;;;;3.08;2.28;;;;;;;24.62;nan;101863.16;5036263;28;20025;-46
2022/05/20 11:15:37;;;;;;;2.75;2.55;;;;;;;24.77;nan;101857.22;5035890;28;20024;-45
2022/05/20 11:18:17;;;;;;;3.17;2.53;;;;;;;24.58;nan;101851.19;5038527;28;20053;-47
2022/05/20 11:20:57;;;;;;;2.63;2.42;;;;;;;24.40;nan;101842.09;5038337;28;20039;-47
2022/05/20 11:23:44;;;;;;;2.78;1.95;;;;;;;24.55;nan;101852.63;5035537;28;20388;-46
2022/05/20 11:26:53;;;;;;;2.75;2.10;;;;;;;24.85;nan;101852.94;5038352;28;20040;-47
2022/05/20 11:29:37;;;;;;;5.57;2.38;;;;;;;24.74;nan;101855.13;5028354;28;20754;-47
2022/05/20 11:32:07;;;;;;;2.83;2.47;;;;;;;24.94;nan;101834.56;5035583;28;20151;-46
2022/05/20 11:34:44;;;;;;;4.55;2.70;;;;;;;25.22;nan;101837.88;5039362;28;20041;-46
2022/05/20 11:37:28;;;;;;;2.25;2.05;;;;;;;25.26;nan;101834.16;5039879;28;20090;-46
2022/05/20 11:40:32;;;;;;;3.67;2.35;;;;;;;25.47;nan;101830.78;5037792;28;20037;-46
2022/05/20 11:43:19;;;;;;;3.30;2.50;;;;;;;25.63;nan;101829.16;5039544;28;20037;-46
2022/05/20 11:45:54;;;;;;;4.32;2.10;;;;;;;25.69;nan;101821.63;5040563;28;20032;-50
2022/05/20 11:48:38;;;;;;;2.65;2.13;;;;;;;25.69;nan;101818.88;5038874;28;20083;-45
2022/05/20 11:51:13;;;;;;;2.50;1.97;;;;;;;25.60;nan;101805.13;5034557;28;20570;-47
2022/05/20 11:53:57;;;;;;;2.45;1.95;;;;;;;25.59;nan;101812.56;5031570;28;20479;-45
2022/05/20 11:56:44;;;;;;;4.23;2.10;;;;;;;25.58;nan;101808.19;5041175;28;20037;-45
2022/05/20 11:59:15;;;;;;;2.35;1.42;;;;;;;25.74;nan;101803.03;5044626;28;20037;-46
2022/05/20 12:01:43;;;;;;;3.45;1.95;;;;;;;25.91;nan;101804.97;5043263;28;20091;-46
2022/05/20 12:04:11;;;;;;;4.82;2.05;;;;;;;25.80;nan;101807.22;5046375;28;20276;-45
2022/05/20 12:06:53;;;;;;;2.95;1.90;;;;;;;25.95;nan;101799.63;5044744;28;20032;-45
2022/05/20 12:09:36;;;;;;;2.72;1.90;;;;;;;26.06;nan;101804.44;5047705;28;20301;-45
2022/05/20 12:12:24;;;;;;;2.33;2.08;;;;;;;25.76;nan;101802.72;5046007;28;20033;-46
2022/05/20 12:15:06;;;;;;;2.47;1.95;;;;;;;25.74;nan;101785.78;5046708;28;20056;-45
2022/05/20 12:17:48;;;;;;;2.55;1.88;;;;;;;26.12;nan;101774.84;5045257;28;20063;-45
2022/05/20 12:25:51;;;;;;;1.60;1.50;;;;;;;26.76;nan;101766.50;5044892;28;20423;-46
2022/05/20 12:28:23;;;;;;;2.63;1.50;;;;;;;26.88;nan;101763.00;5045658;28;20028;-45
2022/05/20 12:31:30;;;;;;;2.80;1.67;;;;;;;26.74;nan;101757.75;5046267;28;20033;-45
2022/05/20 12:33:56;;;;;;;4.18;2.00;;;;;;;26.96;nan;101756.66;4977396;28;20040;-46
2022/05/20 12:36:27;;;;;;;3.33;1.90;;;;;;;27.04;nan;101755.81;4976582;28;20030;-47
2022/05/20 12:39:14;;;;;;;3.50;1.70;;;;;;;27.06;nan;101756.28;5013916;28;20033;-46
2022/05/20 12:41:49;;;;;;;3.78;2.05;;;;;;;27.16;nan;101744.88;5045301;28;20061;-46